Time,TemperatureF,DewpointF,PressureIn,WindDirection,WindDirectionDegrees,WindSpeedMPH,WindSpeedGustMPH,Humidity,HourlyPrecipIn,Conditions,Clouds,dailyrainin,SoftwareType,DateUTC
2013-06-27 00:01:00,71.0,69.0,-100.00,SSW,210,6.0,9.0,92,-99.99,,,-99.99,,2013-06-27 04:01:00,
2013-06-27 00:32:00,71.0,68.0,-100.00,SSW,210,6.0,11.0,92,-99.99,,,-99.99,,2013-06-27 04:32:00,
2013-06-27 01:02:00,70.0,68.0,-100.00,SW,225,7.0,10.0,92,-99.99,,,-99.99,,2013-06-27 05:02:00,
2013-06-27 01:10:00,70.0,68.0,-100.00,SW,230,7.0,10.0,93,-99.99,,,-99.99,,2013-06-27 05:10:00,
2013-06-27 02:02:00,70.0,68.0,-100.00,SW,230,7.0,10.0,93,-99.99,,,-99.99,,2013-06-27 06:02:00,
2013-06-27 02:10:00,69.0,67.0,-100.00,WSW,240,7.0,11.0,93,-99.99,,,-99.99,,2013-06-27 06:10:00,
2013-06-27 02:34:00,70.0,68.0,-100.00,SW,230,9.0,12.0,93,-99.99,,,-99.99,,2013-06-27 06:34:00,
2013-06-27 03:02:00,69.0,67.0,-100.00,WSW,240,7.0,11.0,93,-99.99,,,-99.99,,2013-06-27 07:02:00,
2013-06-27 03:33:00,69.0,67.0,-100.00,WSW,250,6.0,9.0,93,-99.99,,,-99.99,,2013-06-27 07:33:00,
2013-06-27 03:40:00,69.0,67.0,-100.00,SW,235,7.0,11.0,93,-99.99,,,-99.99,,2013-06-27 07:40:00,
2013-06-27 04:01:00,69.0,67.0,-100.00,SW,235,8.0,10.0,93,-99.99,,,-99.99,,2013-06-27 08:01:00,
2013-06-27 04:34:00,69.0,67.0,-100.00,SW,235,7.0,11.0,93,-99.99,,,-99.99,,2013-06-27 08:34:00,
2013-06-27 05:34:00,69.0,67.0,-100.00,SW,235,6.0,10.0,93,-99.99,,,-99.99,,2013-06-27 09:34:00,
2013-06-27 06:32:00,71.0,69.0,-100.00,West,260,7.0,11.0,93,-99.99,,,-99.99,,2013-06-27 10:32:00,
2013-06-27 08:02:00,71.0,69.0,-100.00,NW,305,9.0,14.0,93,-99.99,,,-99.99,,2013-06-27 12:02:00,
2013-06-27 10:02:00,76.0,69.0,-100.00,NW,310,7.0,12.0,79,-99.99,,,-99.99,,2013-06-27 14:02:00,
2013-06-27 11:01:00,79.0,68.0,-100.00,North,0,9.0,13.0,69,-99.99,,,-99.99,,2013-06-27 15:01:00,
2013-06-27 15:34:00,85.0,71.0,-100.00,NW,305,9.0,11.0,62,-99.99,,,-99.99,,2013-06-27 19:34:00,
2013-06-27 20:07:00,87.0,68.0,-100.00,WNW,285,12.0,14.0,52,-99.99,,,-99.99,,2013-06-28 00:07:00,
2013-06-27 20:08:00,85.0,65.0,-100.00,West,280,12.0,17.0,51,-99.99,,,-99.99,,2013-06-28 00:08:00,